Time;durP1;ratioP1;P1;durP2;ratioP2;P2;SDS_P1;SDS_P2;PMS_P1;PMS_P2;Temp;Humidity;BMP_temperature;BMP_pressure;BME280_temperature;BME280_humidity;BME280_pressure;Samples;Min_cycle;Max_cycle;Signal;HPM_P1;HPM_P2
2022/05/17 00:00:28;;;;;;;5.47;2.33;;;21.40;90.10;;;;;;6275358;22;20151;-89
2022/05/17 00:02:53;;;;;;;8.20;2.57;;;21.50;89.80;;;;;;6275957;22;20154;-91
2022/05/17 00:05:19;;;;;;;8.30;2.13;;;21.50;90.00;;;;;;6276468;22;20614;-90
2022/05/17 00:07:45;;;;;;;5.03;2.30;;;21.50;90.10;;;;;;6277917;22;20182;-90
2022/05/17 00:10:11;;;;;;;6.40;2.40;;;21.50;90.20;;;;;;6278091;22;20158;-90
2022/05/17 00:12:37;;;;;;;8.27;2.13;;;21.60;90.20;;;;;;6275406;22;20231;-89
2022/05/17 00:15:05;;;;;;;6.27;2.70;;;21.60;90.20;;;;;;6275427;22;20180;-89
2022/05/17 00:17:31;;;;;;;5.30;2.30;;;21.70;90.00;;;;;;6275298;22;20202;-90
2022/05/17 00:19:57;;;;;;;8.07;2.70;;;21.70;90.10;;;;;;6275567;22;20158;-90
2022/05/17 00:22:22;;;;;;;7.17;2.50;;;21.70;90.10;;;;;;6275711;22;20143;-90
2022/05/17 00:24:48;;;;;;;6.00;2.07;;;21.80;90.20;;;;;;6275284;22;20177;-90
2022/05/17 00:27:14;;;;;;;5.37;2.00;;;21.80;90.20;;;;;;6275632;22;20489;-90
2022/05/17 00:29:40;;;;;;;5.33;1.90;;;21.80;90.20;;;;;;6275587;22;20644;-90
2022/05/17 00:32:06;;;;;;;6.17;2.27;;;21.80;90.30;;;;;;6275646;22;20242;-90
2022/05/17 00:34:32;;;;;;;5.63;2.40;;;21.80;90.20;;;;;;6275248;22;20595;-90
2022/05/17 00:36:57;;;;;;;5.60;1.70;;;22.00;90.00;;;;;;6275570;22;20154;-89
2022/05/17 00:39:23;;;;;;;4.30;1.93;;;22.00;89.80;;;;;;6275349;22;20265;-90
2022/05/17 00:41:49;;;;;;;4.43;1.70;;;22.20;88.80;;;;;;6275151;22;20150;-89
2022/05/17 00:47:02;;;;;;;3.73;1.63;;;22.30;87.40;;;;;;6276695;22;20146;-90
2022/05/17 00:49:45;;;;;;;3.60;1.60;;;22.30;88.20;;;;;;6275062;22;20611;-89
2022/05/17 00:52:32;;;;;;;6.27;1.80;;;22.40;87.40;;;;;;6275594;22;20583;-90
2022/05/17 00:55:04;;;;;;;3.47;1.40;;;22.60;86.60;;;;;;6275240;22;20170;-89
2022/05/17 00:57:41;;;;;;;3.93;1.50;;;22.70;84.70;;;;;;6275179;22;20146;-89
2022/05/17 01:00:13;;;;;;;4.57;1.40;;;22.80;83.90;;;;;;6276975;22;20158;-90
2022/05/17 01:02:48;;;;;;;5.87;1.53;;;22.60;84.30;;;;;;6277295;22;20163;-90
2022/05/17 01:05:16;;;;;;;4.37;1.30;;;22.50;84.50;;;;;;6277028;22;20149;-89
2022/05/17 01:07:44;;;;;;;3.50;1.23;;;22.50;84.30;;;;;;6276930;22;20158;-89
2022/05/17 01:10:11;;;;;;;7.30;1.47;;;22.40;84.50;;;;;;6277194;22;20149;-89
2022/05/17 01:12:38;;;;;;;3.60;1.37;;;22.60;84.10;;;;;;6276870;22;20149;-90
2022/05/17 01:15:06;;;;;;;3.50;1.40;;;22.60;83.90;;;;;;6277036;22;20540;-90
2022/05/17 01:17:35;;;;;;;5.20;1.40;;;22.70;83.70;;;;;;6276087;22;20166;-89
2022/05/17 01:20:07;;;;;;;4.27;1.27;;;22.40;84.50;;;;;;6276910;22;20151;-89
2022/05/17 01:22:33;;;;;;;5.70;1.43;;;22.30;85.20;;;;;;6276644;22;20532;-90
2022/05/17 01:24:58;;;;;;;4.57;1.60;;;22.50;84.20;;;;;;6276872;22;20146;-89
2022/05/17 01:27:28;;;;;;;4.67;1.57;;;22.50;84.50;;;;;;6276920;22;20575;-90
2022/05/17 01:29:55;;;;;;;4.53;1.40;;;22.40;84.30;;;;;;6276586;22;20463;-89
2022/05/17 01:32:21;;;;;;;5.40;1.37;;;22.50;84.00;;;;;;6276729;22;20574;-89
2022/05/17 01:34:47;;;;;;;4.87;1.30;;;22.50;84.00;;;;;;6276445;22;20176;-89
2022/05/17 01:37:14;;;;;;;4.67;1.20;;;22.50;83.70;;;;;;6276916;22;20162;-90
2022/05/17 01:39:40;;;;;;;3.13;1.27;;;22.60;83.70;;;;;;6276592;22;20265;-89
2022/05/17 01:42:07;;;;;;;5.67;1.50;;;22.50;84.10;;;;;;6276931;22;20546;-89
2022/05/17 01:44:33;;;;;;;4.77;1.40;;;22.50;84.10;;;;;;6276319;22;20485;-89
2022/05/17 01:46:58;;;;;;;5.07;1.40;;;22.60;84.00;;;;;;6276773;22;20224;-89
2022/05/17 01:49:24;;;;;;;5.93;1.33;;;22.50;83.80;;;;;;6277068;22;20151;-91
2022/05/17 01:51:50;;;;;;;3.00;1.30;;;22.50;83.90;;;;;;6276770;22;20449;-90
2022/05/17 01:54:16;;;;;;;4.67;1.17;;;22.50;83.80;;;;;;6276207;22;20193;-90
2022/05/17 01:56:42;;;;;;;3.13;1.30;;;22.40;84.20;;;;;;6276378;22;20615;-90
2022/05/17 01:59:07;;;;;;;3.40;1.00;;;22.20;85.10;;;;;;6276491;22;20261;-90
2022/05/17 02:01:33;;;;;;;2.00;1.20;;;22.30;84.20;;;;;;6276728;22;20170;-90
2022/05/17 02:03:58;;;;;;;5.73;1.47;;;22.30;84.50;;;;;;6276950;22;20225;-90
2022/05/17 02:06:25;;;;;;;5.23;1.23;;;22.40;84.70;;;;;;6276408;22;20242;-90
2022/05/17 02:08:50;;;;;;;7.37;1.33;;;22.20;84.80;;;;;;6276687;22;20196;-90
2022/05/17 02:11:16;;;;;;;5.30;1.27;;;22.30;84.80;;;;;;6277338;22;20159;-91
2022/05/17 02:13:42;;;;;;;2.30;1.00;;;22.30;84.40;;;;;;6277189;22;20146;-90
2022/05/17 02:16:11;;;;;;;6.70;1.27;;;22.30;84.30;;;;;;6277601;22;20143;-91
2022/05/17 02:18:37;;;;;;;2.70;1.00;;;22.20;84.60;;;;;;6284641;22;20196;-90
2022/05/17 02:21:03;;;;;;;5.53;1.53;;;22.40;84.40;;;;;;6291624;22;20139;-90
2022/05/17 02:23:29;;;;;;;3.73;1.33;;;22.40;84.60;;;;;;6290415;22;20139;-90
2022/05/17 02:25:56;;;;;;;3.43;1.33;;;22.10;85.00;;;;;;6286645;22;20165;-91
2022/05/17 02:28:22;;;;;;;4.40;1.20;;;22.20;85.30;;;;;;6276726;22;20156;-90
2022/05/17 02:30:49;;;;;;;6.37;1.40;;;22.00;86.60;;;;;;6276269;22;20426;-90
2022/05/17 02:33:15;;;;;;;4.10;1.30;;;21.90;87.20;;;;;;6276500;22;20205;-90
2022/05/17 02:35:42;;;;;;;5.03;1.17;;;21.60;88.40;;;;;;6276635;22;20182;-90
2022/05/17 02:38:09;;;;;;;5.57;1.50;;;21.70;88.60;;;;;;6276161;22;20274;-90
2022/05/17 02:40:35;;;;;;;3.53;1.40;;;21.70;88.50;;;;;;6277230;22;20196;-91
2022/05/17 02:43:01;;;;;;;5.47;1.47;;;21.50;89.20;;;;;;6278246;22;20162;-91
2022/05/17 02:45:27;;;;;;;3.20;1.07;;;21.40;89.80;;;;;;6281191;22;20150;-90
2022/05/17 02:47:53;;;;;;;4.90;1.17;;;21.30;90.10;;;;;;6278003;22;20147;-90
2022/05/17 02:50:20;;;;;;;3.93;1.43;;;21.30;90.50;;;;;;6276253;22;20524;-90
2022/05/17 02:52:45;;;;;;;4.37;1.30;;;21.30;90.70;;;;;;6276537;22;20147;-91
2022/05/17 02:55:11;;;;;;;3.17;1.13;;;21.30;90.40;;;;;;6278105;22;20304;-91
2022/05/17 02:57:38;;;;;;;3.80;1.20;;;21.30;90.20;;;;;;6276868;22;20575;-91
2022/05/17 03:00:08;;;;;;;4.07;1.30;;;21.40;90.50;;;;;;6276861;22;20142;-91
2022/05/17 03:02:34;;;;;;;2.57;1.20;;;21.30;90.60;;;;;;6276988;22;20155;-90
2022/05/17 03:05:00;;;;;;;3.67;1.07;;;21.30;90.70;;;;;;6277183;22;20150;-90
2022/05/17 03:07:26;;;;;;;4.17;1.40;;;21.30;91.00;;;;;;6277895;22;20215;-92
2022/05/17 03:09:51;;;;;;;2.43;0.80;;;21.30;91.10;;;;;;6277011;22;20226;-91
2022/05/17 03:12:17;;;;;;;4.70;1.20;;;21.30;91.10;;;;;;6276839;22;20182;-90
2022/05/17 03:14:43;;;;;;;3.43;1.13;;;21.30;91.20;;;;;;6276653;22;20226;-91
2022/05/17 03:17:11;;;;;;;3.03;1.20;;;21.40;90.90;;;;;;6275969;22;20174;-91
2022/05/17 03:19:37;;;;;;;3.37;0.97;;;21.40;90.80;;;;;;6276274;22;20676;-91
2022/05/17 03:22:03;;;;;;;5.27;1.10;;;21.50;90.80;;;;;;6277086;22;20131;-91
2022/05/17 03:24:29;;;;;;;3.63;1.23;;;21.50;91.20;;;;;;6275818;22;20146;-90
2022/05/17 03:26:54;;;;;;;2.07;1.10;;;21.50;91.30;;;;;;6275613;22;20594;-91
2022/05/17 03:29:20;;;;;;;4.27;1.40;;;21.50;91.30;;;;;;6275748;22;20142;-91
2022/05/17 03:31:46;;;;;;;4.90;1.43;;;21.60;90.90;;;;;;6275838;22;20560;-90
2022/05/17 03:34:11;;;;;;;3.17;1.10;;;21.60;90.40;;;;;;6275772;22;20150;-90
2022/05/17 03:36:37;;;;;;;4.60;1.30;;;21.80;89.80;;;;;;6275626;22;20605;-91
2022/05/17 03:39:04;;;;;;;3.23;1.27;;;21.70;90.00;;;;;;6275498;22;20272;-90
2022/05/17 03:41:29;;;;;;;5.70;1.43;;;21.80;89.00;;;;;;6275563;22;20807;-91
2022/05/17 03:43:55;;;;;;;4.23;1.57;;;21.70;89.20;;;;;;6275354;22;20150;-91
2022/05/17 03:46:20;;;;;;;4.67;1.57;;;21.70;89.40;;;;;;6275537;22;20142;-90
2022/05/17 03:48:46;;;;;;;3.43;1.60;;;21.70;90.30;;;;;;6275534;22;20146;-92
2022/05/17 03:51:14;;;;;;;4.57;1.30;;;22.00;90.60;;;;;;6275767;22;20138;-91
2022/05/17 03:53:40;;;;;;;8.00;1.60;;;22.10;90.50;;;;;;6275486;22;20237;-88
2022/05/17 03:56:06;;;;;;;5.60;1.80;;;22.00;91.40;;;;;;6275545;22;20197;-91
2022/05/17 03:58:32;;;;;;;4.37;1.33;;;21.80;91.30;;;;;;6275283;22;20185;-92
2022/05/17 04:00:57;;;;;;;4.77;1.40;;;21.80;91.30;;;;;;6276105;22;20142;-91
2022/05/17 04:03:23;;;;;;;2.90;1.33;;;21.70;91.60;;;;;;6275639;22;20146;-91
2022/05/17 04:05:49;;;;;;;4.20;1.47;;;21.60;91.60;;;;;;6275562;22;20200;-91
2022/05/17 04:08:14;;;;;;;6.63;1.50;;;21.70;91.50;;;;;;6275581;22;20233;-89
2022/05/17 04:10:40;;;;;;;4.53;1.57;;;21.80;91.40;;;;;;6275918;22;20143;-91
2022/05/17 04:13:06;;;;;;;3.93;1.70;;;21.80;91.50;;;;;;6275452;22;20201;-91
2022/05/17 04:15:32;;;;;;;4.47;1.73;;;21.70;92.00;;;;;;6275731;22;20150;-88
2022/05/17 04:17:58;;;;;;;4.87;1.50;;;21.60;92.10;;;;;;6275213;22;20175;-88
2022/05/17 04:20:26;;;;;;;2.53;1.40;;;21.50;92.80;;;;;;6275450;22;20655;-88
2022/05/17 04:22:53;;;;;;;4.03;1.70;;;21.60;92.90;;;;;;6275669;22;20138;-88
2022/05/17 04:25:23;;;;;;;5.53;1.50;;;21.50;93.10;;;;;;6275619;22;20150;-88
2022/05/17 04:27:50;;;;;;;4.60;1.30;;;21.40;93.50;;;;;;6275428;22;20231;-88
2022/05/17 04:30:16;;;;;;;6.03;1.63;;;21.40;93.60;;;;;;6275280;22;20142;-90
2022/05/17 04:32:43;;;;;;;5.47;2.30;;;21.30;94.20;;;;;;6275617;22;20143;-88
2022/05/17 04:35:10;;;;;;;2.67;1.73;;;21.30;94.30;;;;;;6277211;22;20146;-90
2022/05/17 04:37:36;;;;;;;5.13;1.70;;;21.20;94.40;;;;;;6277216;22;20462;-90
2022/05/17 04:40:04;;;;;;;8.83;1.70;;;21.30;94.50;;;;;;6277686;22;20147;-90
2022/05/17 04:42:30;;;;;;;4.87;1.90;;;21.40;94.10;;;;;;6277537;22;20543;-90
2022/05/17 04:44:56;;;;;;;4.33;1.90;;;21.40;94.40;;;;;;6277100;22;20584;-90
2022/05/17 04:47:22;;;;;;;3.60;1.80;;;21.40;94.30;;;;;;6277516;22;20146;-90
2022/05/17 04:49:48;;;;;;;5.43;2.10;;;21.50;94.20;;;;;;6276597;22;20143;-88
2022/05/17 04:52:14;;;;;;;7.13;2.47;;;21.60;93.70;;;;;;6277512;22;20139;-90
2022/05/17 04:54:42;;;;;;;7.03;2.30;;;21.90;92.90;;;;;;6276983;22;20250;-87
2022/05/17 04:57:08;;;;;;;4.57;1.70;;;21.70;93.50;;;;;;6276969;22;20139;-87
2022/05/17 04:59:33;;;;;;;8.33;2.77;;;21.70;93.90;;;;;;6276992;22;20189;-91
2022/05/17 05:01:59;;;;;;;5.33;2.27;;;21.80;93.40;;;;;;6277210;22;20165;-87
2022/05/17 05:04:25;;;;;;;5.50;1.97;;;21.80;93.40;;;;;;6276794;22;20154;-88
2022/05/17 05:06:50;;;;;;;5.50;2.20;;;21.80;93.50;;;;;;6277079;22;20158;-88
2022/05/17 05:09:16;;;;;;;7.73;2.63;;;21.70;93.70;;;;;;6276864;22;20143;-88
2022/05/17 05:11:41;;;;;;;8.30;2.80;;;21.70;93.60;;;;;;6277270;22;20147;-88
2022/05/17 05:14:09;;;;;;;6.77;2.23;;;21.50;94.20;;;;;;6277328;22;20153;-88
2022/05/17 05:16:38;;;;;;;4.07;1.70;;;21.50;94.40;;;;;;6277076;22;20681;-88
2022/05/17 05:19:03;;;;;;;5.03;2.30;;;21.50;94.70;;;;;;6277037;22;20205;-88
2022/05/17 05:21:29;;;;;;;6.50;2.00;;;21.80;94.40;;;;;;6277580;22;20564;-88
2022/05/17 05:23:55;;;;;;;5.17;1.80;;;21.80;94.30;;;;;;6276967;22;20197;-88
2022/05/17 05:26:21;;;;;;;3.37;1.70;;;21.80;94.30;;;;;;6276559;22;20149;-88
2022/05/17 05:28:46;;;;;;;6.70;2.27;;;21.80;94.40;;;;;;6277018;22;20591;-88
2022/05/17 05:31:15;;;;;;;6.77;1.90;;;21.70;94.80;;;;;;6277206;22;20170;-89
2022/05/17 05:33:41;;;;;;;9.20;2.23;;;21.80;94.70;;;;;;6276599;22;20272;-88
2022/05/17 05:36:08;;;;;;;5.13;2.73;;;21.90;94.10;;;;;;6276977;22;20146;-88
2022/05/17 05:38:34;;;;;;;7.43;2.10;;;21.80;94.60;;;;;;6276768;22;20236;-88
2022/05/17 05:41:00;;;;;;;6.77;2.20;;;21.70;94.90;;;;;;6276761;22;20162;-88
2022/05/17 05:43:26;;;;;;;7.43;2.20;;;21.60;95.10;;;;;;6277056;22;20483;-88
2022/05/17 05:45:52;;;;;;;5.73;2.27;;;21.80;94.70;;;;;;6276412;22;20151;-89
2022/05/17 05:48:18;;;;;;;4.30;2.17;;;21.80;94.70;;;;;;6276883;22;20139;-88
2022/05/17 05:50:44;;;;;;;7.00;2.13;;;21.80;95.10;;;;;;6276188;22;20149;-89
2022/05/17 05:53:12;;;;;;;5.93;2.20;;;22.10;94.70;;;;;;6277203;22;20142;-89
2022/05/17 05:55:38;;;;;;;6.13;2.10;;;22.10;94.40;;;;;;6275600;22;20603;-89
2022/05/17 06:31:43;;;;;;;5.10;2.87;;;22.10;97.90;;;;;;6270894;22;20185;-86
2022/05/17 06:34:09;;;;;;;6.27;2.83;;;21.90;98.60;;;;;;6276202;22;20519;-85
2022/05/17 06:36:35;;;;;;;7.77;3.40;;;21.90;99.50;;;;;;6275853;22;20146;-85
2022/05/17 06:39:00;;;;;;;6.97;2.87;;;22.10;99.40;;;;;;6277292;22;20555;-86
2022/05/17 06:41:27;;;;;;;6.23;2.97;;;22.20;98.40;;;;;;6277324;22;20169;-85
2022/05/17 06:43:53;;;;;;;8.03;2.70;;;22.40;97.40;;;;;;6276187;22;20177;-86
2022/05/17 06:46:19;;;;;;;8.43;2.67;;;22.10;97.70;;;;;;6275076;22;20475;-85
2022/05/17 06:48:44;;;;;;;8.93;3.00;;;21.90;98.80;;;;;;6276165;22;20146;-86
2022/05/17 06:51:10;;;;;;;5.57;2.80;;;21.90;99.20;;;;;;6275724;22;20146;-86
2022/05/17 06:53:36;;;;;;;7.70;2.90;;;21.90;99.90;;;;;;6275700;22;20147;-86
2022/05/17 06:56:06;;;;;;;9.07;3.10;;;22.00;99.90;;;;;;6275353;22;20135;-86
2022/05/17 06:58:32;;;;;;;9.73;3.70;;;22.00;99.90;;;;;;6275810;22;20201;-87
2022/05/17 07:00:58;;;;;;;9.13;2.70;;;21.90;99.80;;;;;;6275746;22;20583;-86
2022/05/17 07:03:23;;;;;;;9.13;3.20;;;22.00;99.70;;;;;;6276013;22;20143;-86
2022/05/17 07:05:49;;;;;;;10.80;3.57;;;22.10;99.90;;;;;;6276362;22;20146;-86
2022/05/17 07:08:15;;;;;;;8.87;3.03;;;22.20;99.90;;;;;;6275399;22;20159;-87
2022/05/17 07:13:25;;;;;;;9.73;3.50;;;22.40;99.10;;;;;;6276941;22;20186;-86
2022/05/17 07:15:51;;;;;;;8.83;3.17;;;22.50;98.60;;;;;;6275597;22;20571;-86
2022/05/17 07:18:21;;;;;;;9.93;3.70;;;22.70;98.30;;;;;;6275798;22;20261;-86
2022/05/17 07:20:47;;;;;;;8.33;3.17;;;22.80;98.30;;;;;;6276033;22;20174;-86
2022/05/17 07:23:14;;;;;;;13.43;3.20;;;22.90;98.00;;;;;;6276008;22;20172;-86
2022/05/17 07:25:44;;;;;;;7.03;3.10;;;23.00;97.70;;;;;;6276083;22;20143;-86
2022/05/17 07:28:13;;;;;;;8.27;3.10;;;23.20;96.70;;;;;;6275913;22;20147;-88
2022/05/17 07:30:39;;;;;;;6.00;3.00;;;23.60;96.00;;;;;;6275436;22;20170;-86
2022/05/17 07:33:05;;;;;;;7.07;3.53;;;23.50;95.60;;;;;;6275204;22;20649;-85
2022/05/17 07:35:31;;;;;;;9.87;3.20;;;23.60;95.60;;;;;;6275392;22;20138;-85
2022/05/17 07:37:57;;;;;;;7.23;3.00;;;23.70;95.30;;;;;;6275439;22;20268;-85
2022/05/17 07:40:23;;;;;;;5.93;3.20;;;23.90;94.80;;;;;;6275693;22;20555;-87
2022/05/17 07:42:50;;;;;;;10.67;3.93;;;24.00;94.80;;;;;;6274798;22;20646;-87
2022/05/17 07:45:16;;;;;;;6.10;3.07;;;24.20;94.70;;;;;;6275410;22;20213;-86
2022/05/17 07:47:42;;;;;;;6.23;3.07;;;24.50;93.80;;;;;;6275219;22;20640;-87
2022/05/17 07:50:08;;;;;;;5.97;3.00;;;24.50;93.20;;;;;;6275581;22;20475;-87
2022/05/17 07:52:33;;;;;;;7.53;3.13;;;24.50;93.00;;;;;;6275366;22;20151;-87
2022/05/17 07:55:00;;;;;;;5.73;3.20;;;24.50;93.20;;;;;;6274783;22;20240;-87
2022/05/17 07:57:26;;;;;;;5.77;3.20;;;24.70;93.50;;;;;;6275265;22;20217;-86
2022/05/17 07:59:52;;;;;;;7.80;2.83;;;24.90;92.60;;;;;;6275215;22;20185;-85
2022/05/17 08:02:18;;;;;;;7.97;3.20;;;24.90;92.50;;;;;;6275013;22;20196;-85
2022/05/17 08:04:44;;;;;;;6.83;3.40;;;25.00;92.80;;;;;;6275123;22;20576;-85
2022/05/17 08:07:10;;;;;;;8.40;3.17;;;25.00;92.50;;;;;;6275478;22;20142;-85
2022/05/17 08:09:36;;;;;;;8.93;3.57;;;25.00;92.40;;;;;;6277769;22;20146;-88
2022/05/17 08:12:04;;;;;;;10.43;3.67;;;25.00;92.20;;;;;;6276926;22;20146;-87
2022/05/17 08:14:30;;;;;;;7.87;3.47;;;25.10;92.40;;;;;;6277124;22;20204;-87
2022/05/17 08:16:55;;;;;;;7.10;3.37;;;25.40;91.50;;;;;;6276874;22;20626;-87
2022/05/17 08:19:21;;;;;;;5.80;3.63;;;25.20;91.80;;;;;;6276842;22;20177;-87
2022/05/17 08:21:47;;;;;;;12.70;4.17;;;25.20;91.60;;;;;;6277056;22;20139;-87
2022/05/17 08:24:12;;;;;;;7.73;4.07;;;25.10;91.60;;;;;;6277254;22;20475;-87
2022/05/17 08:29:22;;;;;;;7.93;3.80;;;24.80;92.00;;;;;;6278462;22;20172;-87
2022/05/17 08:34:32;;;;;;;9.93;3.87;;;24.50;92.60;;;;;;6278550;22;20152;-87
2022/05/17 08:36:58;;;;;;;8.83;4.53;;;24.50;92.80;;;;;;6277165;22;20143;-86
2022/05/17 08:39:26;;;;;;;11.63;4.13;;;24.50;92.60;;;;;;6276965;22;20182;-85
2022/05/17 08:42:28;;;;;;;8.10;4.10;;;24.50;92.80;;;;;;6276891;22;20604;-88
2022/05/17 08:45:02;;;;;;;9.93;4.50;;;24.60;92.50;;;;;;6213871;22;20238;-88
2022/05/17 08:47:51;;;;;;;8.17;4.10;;;24.30;93.00;;;;;;6277169;22;20138;-85
2022/05/17 08:50:25;;;;;;;9.13;4.73;;;24.30;93.50;;;;;;6276841;22;20515;-85
2022/05/17 08:52:53;;;;;;;11.70;4.33;;;24.50;93.60;;;;;;6276826;22;20146;-85
2022/05/17 08:55:31;;;;;;;9.97;4.33;;;24.40;93.20;;;;;;6276409;22;20145;-85
2022/05/17 08:58:05;;;;;;;9.10;4.70;;;24.40;93.00;;;;;;6276897;22;20174;-87
2022/05/17 09:00:40;;;;;;;8.83;4.43;;;24.50;93.20;;;;;;6276687;22;20158;-85
2022/05/17 09:03:26;;;;;;;9.90;4.87;;;24.50;93.10;;;;;;6276538;22;20630;-85
2022/05/17 09:06:16;;;;;;;8.73;4.10;;;24.50;93.20;;;;;;6276583;22;20151;-88
2022/05/17 09:08:48;;;;;;;8.77;4.40;;;24.70;93.40;;;;;;6276924;22;20143;-85
2022/05/17 09:11:21;;;;;;;10.03;4.77;;;24.70;93.10;;;;;;6276230;22;20584;-87
2022/05/17 09:14:16;;;;;;;8.03;4.50;;;24.90;93.10;;;;;;6277391;22;20150;-87
2022/05/17 09:16:47;;;;;;;7.33;4.23;;;25.10;92.90;;;;;;6276818;22;20174;-88
2022/05/17 09:19:14;;;;;;;8.90;4.43;;;25.20;92.30;;;;;;6276131;22;20220;-87
2022/05/17 09:21:42;;;;;;;11.50;5.03;;;25.20;92.20;;;;;;6276909;22;20419;-86
2022/05/17 09:24:14;;;;;;;9.93;4.33;;;25.10;92.30;;;;;;6276400;22;20200;-87
2022/05/17 09:26:48;;;;;;;6.10;4.43;;;25.10;92.00;;;;;;6276559;22;20602;-87
2022/05/17 09:29:21;;;;;;;10.17;4.40;;;25.10;92.00;;;;;;6276715;22;20178;-87
2022/05/17 09:31:59;;;;;;;7.43;3.67;;;25.20;91.70;;;;;;6276459;22;20251;-87
2022/05/17 09:34:38;;;;;;;6.90;3.63;;;25.40;91.20;;;;;;6276524;22;20135;-87
2022/05/17 09:37:14;;;;;;;8.70;3.57;;;25.40;91.00;;;;;;6276346;22;20143;-87
2022/05/17 09:39:43;;;;;;;5.57;3.60;;;25.40;90.70;;;;;;6276159;22;20230;-85
2022/05/17 09:42:25;;;;;;;7.33;3.60;;;25.50;90.50;;;;;;6276556;22;20218;-87
2022/05/17 09:44:52;;;;;;;10.23;3.23;;;25.50;90.50;;;;;;6276779;22;20573;-87
2022/05/17 09:47:31;;;;;;;7.37;3.37;;;25.50;90.70;;;;;;6276433;22;20138;-87
2022/05/17 09:52:57;;;;;;;8.17;3.87;;;25.50;90.50;;;;;;6277959;22;20477;-86
2022/05/17 09:55:30;;;;;;;10.97;4.03;;;25.40;90.70;;;;;;6277208;22;20569;-86
2022/05/17 09:58:07;;;;;;;7.73;3.77;;;25.30;91.20;;;;;;6276266;22;20242;-87
2022/05/17 10:00:32;;;;;;;5.37;3.33;;;25.40;91.00;;;;;;6276277;22;20611;-87
2022/05/17 10:03:30;;;;;;;4.87;2.70;;;25.60;90.90;;;;;;6276376;22;20147;-87
2022/05/17 10:06:00;;;;;;;9.33;2.97;;;25.80;90.20;;;;;;6266884;22;20513;-87
2022/05/17 10:08:35;;;;;;;5.30;3.20;;;25.90;90.00;;;;;;6275894;22;20591;-86
2022/05/17 10:11:16;;;;;;;6.43;2.67;;;25.90;89.80;;;;;;6276076;22;20574;-87
2022/05/17 10:14:01;;;;;;;6.90;2.90;;;25.90;89.10;;;;;;6276231;22;20280;-86
2022/05/17 10:17:00;;;;;;;5.73;2.77;;;25.80;89.30;;;;;;6275991;22;20177;-87
2022/05/17 10:20:23;;;;;;;6.73;2.60;;;25.80;89.60;;;;;;6185100;22;20264;-87
2022/05/17 10:22:54;;;;;;;8.63;2.87;;;26.00;88.70;;;;;;6211328;22;20158;-87
2022/05/17 10:25:23;;;;;;;7.23;2.70;;;26.10;88.90;;;;;;6276062;22;20156;-86
2022/05/17 10:27:54;;;;;;;6.40;3.23;;;26.10;88.60;;;;;;6276171;22;20172;-87
2022/05/17 10:30:37;;;;;;;6.07;3.20;;;26.30;88.10;;;;;;6275763;22;20151;-87
2022/05/17 10:33:10;;;;;;;7.27;2.87;;;26.30;88.60;;;;;;6276290;22;20567;-87
2022/05/17 10:35:47;;;;;;;5.10;2.63;;;26.40;88.10;;;;;;6276434;22;20448;-87
2022/05/17 10:38:24;;;;;;;8.13;2.67;;;26.50;87.90;;;;;;6275509;22;20618;-86
2022/05/17 10:40:52;;;;;;;5.07;2.40;;;26.60;86.90;;;;;;6275971;22;20203;-87
2022/05/17 10:43:30;;;;;;;5.90;2.20;;;26.80;86.10;;;;;;6276070;22;20150;-87
2022/05/17 10:46:04;;;;;;;7.13;2.30;;;26.90;83.60;;;;;;6275929;22;20557;-86
2022/05/17 10:48:48;;;;;;;8.90;2.30;;;26.90;83.40;;;;;;6275702;22;20183;-87
2022/05/17 10:51:20;;;;;;;4.30;2.00;;;26.80;83.60;;;;;;6275420;22;20586;-86
2022/05/17 10:54:12;;;;;;;4.87;2.17;;;26.80;83.70;;;;;;6275633;22;20151;-86
2022/05/17 10:56:41;;;;;;;7.83;2.30;;;26.80;83.80;;;;;;6275166;22;20609;-86
2022/05/17 10:59:18;;;;;;;4.47;2.20;;;26.90;83.70;;;;;;6275703;22;20193;-86
2022/05/17 11:02:13;;;;;;;4.87;2.40;;;27.00;83.60;;;;;;6275373;22;20161;-86
2022/05/17 11:04:59;;;;;;;4.57;2.10;;;27.10;83.00;;;;;;6275367;22;20153;-86
2022/05/17 11:08:01;;;;;;;3.40;2.03;;;27.40;83.50;;;;;;6275139;22;20154;-86
2022/05/17 11:10:37;;;;;;;3.80;1.90;;;27.50;81.90;;;;;;6275396;22;20240;-86
2022/05/17 11:13:13;;;;;;;7.23;2.03;;;27.60;81.90;;;;;;6275293;22;20624;-86
2022/05/17 11:15:46;;;;;;;5.53;2.23;;;27.80;81.50;;;;;;6275476;22;20202;-86
2022/05/17 11:18:27;;;;;;;5.73;2.17;;;28.10;81.40;;;;;;6275045;22;20217;-86
2022/05/17 11:21:09;;;;;;;6.40;2.40;;;28.60;80.80;;;;;;6275108;22;20153;-86
2022/05/17 11:23:47;;;;;;;3.63;1.80;;;29.20;79.60;;;;;;6275209;22;20214;-86
2022/05/17 11:26:53;;;;;;;4.70;2.00;;;30.30;77.50;;;;;;6275150;22;20177;-86
2022/05/17 11:29:31;;;;;;;3.63;1.90;;;31.10;74.60;;;;;;6274796;22;20571;-86
2022/05/17 11:32:23;;;;;;;6.67;1.90;;;31.60;71.30;;;;;;6274991;22;20177;-86
2022/05/17 11:34:50;;;;;;;3.47;1.87;;;31.50;70.50;;;;;;6274883;22;20151;-86
2022/05/17 11:37:38;;;;;;;4.07;1.53;;;31.10;69.10;;;;;;6275314;22;20590;-85
2022/05/17 11:40:07;;;;;;;5.10;1.90;;;31.30;68.10;;;;;;6275307;22;20253;-87
2022/05/17 11:45:50;;;;;;;3.50;1.98;;;33.20;65.10;;;;;;6276762;22;20165;-87
2022/05/17 11:48:22;;;;;;;4.78;1.38;;;33.50;64.50;;;;;;6275155;22;20143;-87
2022/05/17 11:51:01;;;;;;;4.85;1.65;;;34.00;63.20;;;;;;6275142;22;20142;-87
2022/05/17 11:53:39;;;;;;;4.50;1.60;;;34.10;62.40;;;;;;6275180;22;20517;-88
2022/05/17 11:56:17;;;;;;;2.92;1.52;;;33.60;62.00;;;;;;6275549;22;20552;-87
2022/05/17 11:58:45;;;;;;;4.90;1.60;;;33.50;61.80;;;;;;6274914;22;20328;-87
2022/05/17 12:01:26;;;;;;;2.55;1.27;;;33.30;60.70;;;;;;6275582;22;20481;-87
2022/05/17 12:04:19;;;;;;;2.67;1.20;;;32.90;59.60;;;;;;6274643;22;20150;-87
2022/05/17 12:06:51;;;;;;;4.07;1.15;;;32.80;58.10;;;;;;6275825;22;20143;-87
2022/05/17 12:09:23;;;;;;;7.32;1.50;;;32.60;58.70;;;;;;6275697;22;20150;-86
2022/05/17 12:12:10;;;;;;;7.55;1.30;;;33.00;58.10;;;;;;6277152;22;20146;-87
2022/05/17 12:14:51;;;;;;;2.25;1.10;;;33.30;57.80;;;;;;6277017;22;20147;-88
2022/05/17 12:17:30;;;;;;;3.13;1.02;;;33.40;56.70;;;;;;6277742;22;20197;-87
2022/05/17 12:20:31;;;;;;;3.33;1.40;;;33.50;56.20;;;;;;6275247;22;20228;-87
2022/05/17 12:23:16;;;;;;;3.15;1.30;;;33.90;55.90;;;;;;6239621;22;20150;-88
2022/05/17 12:26:01;;;;;;;3.13;0.93;;;35.20;54.10;;;;;;6275077;22;20146;-89
2022/05/17 12:28:33;;;;;;;4.15;1.00;;;36.00;51.60;;;;;;6274977;22;20161;-88
2022/05/17 12:31:01;;;;;;;4.85;1.00;;;36.00;49.90;;;;;;6275069;22;20166;-88
2022/05/17 12:33:34;;;;;;;3.22;1.10;;;36.00;48.80;;;;;;6274767;22;20177;-88
2022/05/17 12:36:25;;;;;;;3.15;0.90;;;36.10;48.00;;;;;;6275049;22;20143;-88
2022/05/17 12:44:33;;;;;;;1.95;0.50;;;37.90;45.90;;;;;;6276555;22;20174;-88
2022/05/17 12:47:00;;;;;;;2.17;0.60;;;37.60;44.90;;;;;;6274893;22;20201;-88
2022/05/17 12:49:29;;;;;;;4.35;0.70;;;37.30;45.20;;;;;;6275056;22;20150;-89
2022/05/17 12:52:12;;;;;;;3.33;1.00;;;37.50;45.40;;;;;;6275141;22;20575;-87
2022/05/17 12:54:38;;;;;;;3.33;0.85;;;37.30;46.30;;;;;;6276306;22;20154;-89
2022/05/17 12:57:30;;;;;;;3.78;1.17;;;37.10;46.80;;;;;;6277145;22;20164;-88
2022/05/17 13:00:25;;;;;;;4.55;0.80;;;36.10;46.10;;;;;;6277461;22;20186;-88
2022/05/17 13:03:14;;;;;;;2.53;0.77;;;35.30;46.50;;;;;;6276461;22;20635;-87
2022/05/17 13:05:43;;;;;;;6.15;1.15;;;35.30;46.60;;;;;;6277091;22;20194;-87
2022/05/17 13:08:23;;;;;;;1.70;0.80;;;35.80;47.00;;;;;;6277185;22;20618;-88
2022/05/17 13:11:09;;;;;;;2.65;0.82;;;36.40;46.80;;;;;;6276789;22;20485;-88
2022/05/17 13:13:37;;;;;;;2.13;0.50;;;37.50;45.10;;;;;;6276704;22;20142;-88
2022/05/17 13:16:12;;;;;;;6.60;0.80;;;37.50;44.70;;;;;;6276356;22;20651;-88
2022/05/17 13:18:50;;;;;;;2.97;0.77;;;37.60;46.30;;;;;;6276560;22;20181;-88
2022/05/17 13:21:28;;;;;;;3.13;0.80;;;37.90;45.90;;;;;;6276752;22;20150;-87
2022/05/17 13:23:57;;;;;;;1.30;0.52;;;38.10;44.70;;;;;;6276687;22;20147;-88
2022/05/17 13:26:35;;;;;;;3.03;0.75;;;38.30;44.50;;;;;;6276483;22;20201;-87
2022/05/17 13:29:20;;;;;;;2.80;0.77;;;37.80;45.00;;;;;;6276714;22;20192;-88
2022/05/17 13:31:45;;;;;;;1.58;0.60;;;37.70;43.60;;;;;;6276026;22;20173;-88
2022/05/17 13:34:17;;;;;;;3.78;0.73;;;38.30;44.20;;;;;;6277134;22;20147;-88
2022/05/17 13:36:43;;;;;;;2.05;0.60;;;38.10;44.30;;;;;;6276409;22;20143;-88
2022/05/17 13:39:28;;;;;;;2.22;0.75;;;38.40;43.70;;;;;;6276607;22;20175;-88
2022/05/17 13:41:55;;;;;;;3.65;0.70;;;38.50;44.00;;;;;;6276276;22;20226;-88
2022/05/17 13:44:32;;;;;;;5.60;1.25;;;39.50;43.20;;;;;;6275983;22;20146;-88
2022/05/17 13:47:04;;;;;;;2.08;1.00;;;39.40;43.10;;;;;;6276150;22;20221;-88
2022/05/17 13:49:39;;;;;;;1.77;0.82;;;38.70;43.90;;;;;;6276372;22;20158;-88
2022/05/17 13:52:22;;;;;;;3.47;1.10;;;38.70;42.90;;;;;;6276195;22;20456;-87
2022/05/17 13:54:57;;;;;;;6.50;1.00;;;38.40;43.60;;;;;;6276358;22;20150;-87
2022/05/17 13:57:24;;;;;;;3.10;1.02;;;38.20;44.70;;;;;;6277439;22;20511;-87
2022/05/17 13:59:51;;;;;;;3.65;0.82;;;38.90;43.80;;;;;;6275976;22;20615;-87